Time;durP1;ratioP1;P1;durP2;ratioP2;P2;SDS_P1;SDS_P2;PMS_P1;PMS_P2;Temp;Humidity;BMP_temperature;BMP_pressure;BME280_temperature;BME280_humidity;BME280_pressure;Samples;Min_cycle;Max_cycle;Signal;HPM_P1;HPM_P2
2023/09/25 00:00:43;;;;;;;3.50;2.73;;;;;;;12.66;74.84;101864.38;5027033;28;20622;-74
2023/09/25 00:03:13;;;;;;;3.17;2.87;;;;;;;12.59;73.93;101868.63;5028057;28;20230;-75
2023/09/25 00:05:43;;;;;;;3.07;2.40;;;;;;;12.54;74.16;101864.66;5028479;28;20253;-75
2023/09/25 00:08:11;;;;;;;3.27;2.97;;;;;;;12.52;73.77;101859.44;5029117;28;20246;-75
2023/09/25 00:10:41;;;;;;;2.97;2.60;;;;;;;12.50;74.34;101872.16;5028585;28;20217;-75
2023/09/25 00:13:10;;;;;;;3.10;2.80;;;;;;;12.54;74.28;101865.50;5023337;28;20255;-75
2023/09/25 00:15:44;;;;;;;3.07;2.77;;;;;;;12.46;75.51;101868.09;5027177;28;20281;-75
2023/09/25 00:18:14;;;;;;;3.67;2.97;;;;;;;12.58;74.23;101866.06;5028969;28;20249;-75
2023/09/25 00:20:44;;;;;;;2.97;2.50;;;;;;;12.69;73.41;101866.75;5028437;28;20206;-75
2023/09/25 00:23:13;;;;;;;4.17;2.70;;;;;;;12.60;73.33;101864.94;5028829;28;20241;-75
2023/09/25 00:25:41;;;;;;;2.70;2.47;;;;;;;12.39;74.23;101869.66;5017333;28;20230;-75
2023/09/25 00:28:10;;;;;;;3.17;2.87;;;;;;;12.30;74.78;101867.84;5028714;28;20256;-75
2023/09/25 00:30:39;;;;;;;3.53;2.70;;;;;;;12.19;76.02;101866.16;5028498;28;20207;-76
2023/09/25 00:33:07;;;;;;;4.10;3.10;;;;;;;12.11;75.65;101860.66;5016388;28;20307;-75
2023/09/25 00:35:36;;;;;;;4.43;3.10;;;;;;;12.03;76.12;101860.53;5027646;28;20227;-75
2023/09/25 00:38:06;;;;;;;3.33;3.00;;;;;;;12.08;76.80;101866.31;5021303;28;20778;-76
2023/09/25 00:40:36;;;;;;;3.60;3.30;;;;;;;12.06;76.64;101862.06;5021564;28;20207;-75
2023/09/25 00:43:05;;;;;;;4.90;3.00;;;;;;;12.01;75.74;101859.84;5027908;28;20676;-75
2023/09/25 00:45:36;;;;;;;4.87;2.93;;;;;;;12.11;76.00;101862.50;5027490;28;20731;-75
2023/09/25 00:48:06;;;;;;;6.37;3.40;;;;;;;12.00;75.85;101870.69;5015075;28;20234;-76
2023/09/25 00:50:35;;;;;;;4.77;3.30;;;;;;;12.02;76.65;101871.41;5027357;28;20230;-75
2023/09/25 00:53:09;;;;;;;4.67;3.20;;;;;;;12.13;75.72;101865.88;5025713;28;20209;-75
2023/09/25 00:55:37;;;;;;;5.13;3.70;;;;;;;12.14;76.15;101871.13;5027665;28;20284;-75
2023/09/25 00:58:08;;;;;;;6.47;3.40;;;;;;;12.11;76.80;101868.72;5028090;28;20248;-76
2023/09/25 01:00:37;;;;;;;3.17;2.87;;;;;;;12.06;76.94;101865.59;5025785;28;20269;-75
2023/09/25 01:03:06;;;;;;;4.40;3.27;;;;;;;12.11;75.02;101863.34;5027447;28;20203;-75
2023/09/25 01:05:37;;;;;;;4.00;3.20;;;;;;;12.11;74.77;101860.66;5026037;28;20685;-75
2023/09/25 01:08:08;;;;;;;4.60;3.20;;;;;;;12.04;76.43;101869.44;5017874;28;20310;-75
2023/09/25 01:10:38;;;;;;;4.10;3.00;;;;;;;12.03;74.86;101860.53;5024206;28;20238;-75
2023/09/25 01:13:06;;;;;;;4.43;3.30;;;;;;;12.09;76.02;101859.09;5019139;28;20230;-76
2023/09/25 01:15:35;;;;;;;3.63;3.00;;;;;;;12.12;75.31;101854.28;5022298;28;20656;-75
2023/09/25 01:18:04;;;;;;;3.63;3.33;;;;;;;12.03;74.75;101846.25;5026818;28;20222;-76
2023/09/25 01:20:32;;;;;;;3.60;3.27;;;;;;;12.12;74.66;101845.41;5027221;28;20211;-75
2023/09/25 01:23:05;;;;;;;5.70;3.10;;;;;;;12.02;75.57;101852.63;5026251;28;20207;-76
2023/09/25 01:25:33;;;;;;;5.67;3.20;;;;;;;11.93;75.27;101853.47;5018031;28;20744;-75
2023/09/25 01:28:03;;;;;;;3.43;3.10;;;;;;;11.80;74.72;101852.91;5024410;28;20226;-76
2023/09/25 01:30:32;;;;;;;4.27;3.30;;;;;;;11.75;75.80;101845.28;5024575;28;20203;-75
2023/09/25 01:33:01;;;;;;;3.73;3.30;;;;;;;11.65;76.17;101850.59;5025685;28;20214;-75
2023/09/25 01:35:30;;;;;;;5.00;3.90;;;;;;;11.55;76.42;101836.34;5026169;28;20622;-73
2023/09/25 01:38:00;;;;;;;4.10;3.50;;;;;;;11.69;76.70;101841.28;5015977;28;20233;-76
2023/09/25 01:40:30;;;;;;;4.73;3.60;;;;;;;11.69;76.89;101837.75;5023841;28;20218;-75
2023/09/25 01:42:59;;;;;;;4.67;3.97;;;;;;;11.61;77.00;101834.91;5024638;28;20287;-76
2023/09/25 01:45:28;;;;;;;5.57;3.93;;;;;;;11.60;77.27;101836.78;5026440;28;20646;-76
2023/09/25 01:47:57;;;;;;;4.53;3.73;;;;;;;11.58;77.45;101827.16;5024706;28;20649;-75
2023/09/25 01:50:27;;;;;;;4.90;3.50;;;;;;;11.58;76.65;101830.69;5027674;28;20209;-75
2023/09/25 01:52:57;;;;;;;5.73;3.80;;;;;;;11.74;76.09;101826.66;5022878;28;20211;-75
2023/09/25 01:55:31;;;;;;;4.70;3.97;;;;;;;11.82;76.38;101824.94;5016499;28;20227;-76
2023/09/25 01:58:00;;;;;;;4.03;3.40;;;;;;;11.81;75.87;101820.59;5024572;28;20227;-76
2023/09/25 02:00:29;;;;;;;4.37;3.50;;;;;;;11.86;76.08;101823.66;5020518;28;20207;-76
2023/09/25 02:02:57;;;;;;;3.80;3.27;;;;;;;11.86;74.86;101822.81;5024865;28;20584;-76
2023/09/25 02:05:26;;;;;;;4.03;3.40;;;;;;;11.78;75.37;101820.03;5027415;28;20199;-76
2023/09/25 02:07:55;;;;;;;4.00;3.27;;;;;;;11.76;75.79;101819.28;5017947;28;20277;-76
2023/09/25 02:10:23;;;;;;;4.23;3.40;;;;;;;11.75;75.38;101817.63;5027093;28;20273;-76
2023/09/25 02:12:53;;;;;;;4.03;3.60;;;;;;;11.55;75.56;101817.56;5026131;28;20301;-76
2023/09/25 02:15:22;;;;;;;3.40;3.10;;;;;;;11.55;75.32;101812.22;5030822;28;20841;-76
2023/09/25 02:17:50;;;;;;;4.57;3.40;;;;;;;11.57;75.19;101818.28;5023096;28;20235;-76
2023/09/25 02:20:19;;;;;;;3.87;3.03;;;;;;;11.50;74.79;101817.16;5025876;28;20650;-76
2023/09/25 02:22:49;;;;;;;4.40;2.97;;;;;;;11.50;76.93;101814.47;5020394;28;20231;-75
2023/09/25 02:25:18;;;;;;;5.13;3.30;;;;;;;11.51;75.27;101810.78;5023542;28;20695;-76
2023/09/25 02:27:47;;;;;;;4.63;3.13;;;;;;;11.46;75.89;101815.75;5023545;28;20312;-76
2023/09/25 02:30:17;;;;;;;3.50;2.90;;;;;;;11.49;76.37;101818.13;5031061;28;20249;-75
2023/09/25 02:32:46;;;;;;;3.97;3.23;;;;;;;11.42;75.69;101825.03;5029806;28;20635;-75
2023/09/25 02:35:15;;;;;;;4.57;3.40;;;;;;;11.37;77.05;101813.06;5029881;28;20231;-76
2023/09/25 02:37:44;;;;;;;5.20;3.40;;;;;;;11.42;76.35;101808.97;5028973;28;20316;-75
2023/09/25 02:40:14;;;;;;;4.37;3.30;;;;;;;11.32;76.48;101800.06;5023907;28;20225;-76
2023/09/25 02:42:45;;;;;;;6.37;4.00;;;;;;;11.43;76.31;101805.28;5029593;28;20213;-76
2023/09/25 02:45:14;;;;;;;4.33;3.10;;;;;;;11.44;76.28;101804.28;5023327;28;20203;-76
2023/09/25 02:47:44;;;;;;;5.33;3.37;;;;;;;11.50;75.87;101803.75;5022714;28;20250;-76
2023/09/25 02:50:14;;;;;;;4.97;3.30;;;;;;;11.47;75.73;101798.63;5029846;28;20206;-76
2023/09/25 02:52:43;;;;;;;4.03;3.10;;;;;;;11.38;75.96;101796.81;5028583;28;20289;-76
2023/09/25 02:55:13;;;;;;;3.37;2.80;;;;;;;11.32;76.57;101794.69;5030933;28;20225;-76
2023/09/25 02:57:42;;;;;;;3.33;2.90;;;;;;;11.32;76.45;101791.16;5028259;28;20230;-76
2023/09/25 03:00:11;;;;;;;3.53;3.23;;;;;;;11.21;76.46;101808.22;5026089;28;20213;-76
2023/09/25 03:02:41;;;;;;;5.03;3.13;;;;;;;11.30;76.36;101804.69;5027618;28;20299;-76
2023/09/25 03:05:11;;;;;;;4.20;3.27;;;;;;;11.31;75.63;101803.72;5016083;28;20668;-76
2023/09/25 03:07:41;;;;;;;4.33;3.13;;;;;;;11.13;77.08;101800.00;5029570;28;20230;-76
2023/09/25 03:10:10;;;;;;;3.73;3.37;;;;;;;10.97;76.30;101805.06;5016963;28;20257;-76
2023/09/25 03:12:40;;;;;;;4.73;3.47;;;;;;;11.19;75.67;101796.78;5029653;28;20265;-75
2023/09/25 03:15:09;;;;;;;3.57;3.13;;;;;;;11.17;75.83;101791.56;5014779;28;20294;-76
2023/09/25 03:17:38;;;;;;;6.03;3.03;;;;;;;11.10;76.03;101797.59;5029621;28;20299;-76
2023/09/25 03:20:15;;;;;;;5.07;3.13;;;;;;;11.07;75.37;101804.09;5013518;28;20253;-76
2023/09/25 03:22:45;;;;;;;4.87;3.27;;;;;;;11.09;75.78;101790.56;5020623;28;20721;-76
2023/09/25 03:25:14;;;;;;;3.80;3.40;;;;;;;11.02;75.12;101800.16;5023450;28;20253;-76
2023/09/25 03:27:44;;;;;;;5.37;3.30;;;;;;;10.92;75.96;101797.44;5028299;28;20250;-75
2023/09/25 03:30:16;;;;;;;3.83;3.43;;;;;;;11.05;75.64;101802.53;5029069;28;20254;-78
2023/09/25 03:32:45;;;;;;;3.67;3.23;;;;;;;10.93;75.69;101800.94;5028224;28;20900;-76
2023/09/25 03:35:15;;;;;;;3.70;3.40;;;;;;;10.99;76.83;101808.47;5028737;28;20207;-76
2023/09/25 03:37:43;;;;;;;3.67;3.37;;;;;;;10.92;75.26;101813.53;5028538;28;20238;-76
2023/09/25 03:40:12;;;;;;;4.57;3.77;;;;;;;10.75;76.32;101805.28;5029703;28;20298;-76
2023/09/25 03:42:42;;;;;;;5.87;3.63;;;;;;;10.63;78.15;101810.72;5028549;28;20210;-76
2023/09/25 03:45:11;;;;;;;7.43;4.00;;;;;;;10.57;77.91;101803.25;5022873;28;20225;-76
2023/09/25 03:47:40;;;;;;;7.23;4.53;;;;;;;10.52;78.52;101796.56;5028600;28;20230;-76
2023/09/25 03:50:09;;;;;;;5.97;4.13;;;;;;;10.55;78.89;101804.34;5015460;28;20199;-76
2023/09/25 03:52:39;;;;;;;6.03;4.40;;;;;;;10.55;78.85;101799.81;5028754;28;20293;-76
2023/09/25 03:55:08;;;;;;;5.63;4.40;;;;;;;10.50;78.85;101801.22;5015545;28;20257;-76
2023/09/25 03:57:37;;;;;;;5.20;4.20;;;;;;;10.43;79.55;101814.31;5018579;28;20300;-76
2023/09/25 04:00:07;;;;;;;7.43;4.53;;;;;;;10.45;79.38;101809.66;5011369;28;20210;-76
2023/09/25 04:02:36;;;;;;;5.53;4.27;;;;;;;10.45;79.89;101808.78;5018170;28;20214;-75
2023/09/25 04:05:05;;;;;;;5.60;4.23;;;;;;;10.42;78.81;101811.75;5025854;28;20215;-77
2023/09/25 04:07:33;;;;;;;10.20;4.50;;;;;;;10.40;79.31;101803.88;5025278;28;20219;-76
2023/09/25 04:10:07;;;;;;;7.10;4.30;;;;;;;10.50;77.70;101811.94;5027628;28;20212;-76
2023/09/25 04:12:35;;;;;;;4.90;4.03;;;;;;;10.52;78.50;101812.63;5027315;28;20575;-75
2023/09/25 04:15:08;;;;;;;6.47;4.17;;;;;;;10.72;77.52;101810.91;5025189;28;20203;-76
2023/09/25 04:17:38;;;;;;;8.33;4.70;;;;;;;10.61;77.92;101810.03;5027892;28;20234;-76
2023/09/25 04:20:15;;;;;;;5.60;4.10;;;;;;;10.54;77.81;101814.22;5029078;28;20214;-76
2023/09/25 04:22:44;;;;;;;4.20;3.77;;;;;;;10.54;77.27;101819.56;5026370;28;20209;-75
2023/09/25 04:25:18;;;;;;;5.13;4.50;;;;;;;10.62;76.92;101824.25;5022167;28;20697;-75
2023/09/25 04:27:50;;;;;;;5.93;4.20;;;;;;;10.65;77.08;101821.31;5020088;28;20571;-76
2023/09/25 04:30:20;;;;;;;5.40;4.47;;;;;;;10.58;76.36;101820.16;5029123;28;20237;-76
2023/09/25 04:32:53;;;;;;;4.60;4.13;;;;;;;10.53;77.08;101820.56;5020795;28;20639;-75
2023/09/25 04:35:23;;;;;;;5.17;4.40;;;;;;;10.55;76.77;101817.72;5020608;28;20261;-75
2023/09/25 04:37:51;;;;;;;4.73;4.10;;;;;;;10.52;76.93;101815.31;5027216;28;20716;-75
2023/09/25 04:40:24;;;;;;;6.57;4.17;;;;;;;10.46;77.35;101811.34;5028169;28;20207;-75
2023/09/25 04:42:54;;;;;;;5.07;4.00;;;;;;;10.50;76.57;101812.78;5020510;28;20206;-75
2023/09/25 04:45:23;;;;;;;6.60;4.83;;;;;;;10.55;77.26;101815.91;5015264;28;20684;-75
2023/09/25 04:47:52;;;;;;;6.43;5.53;;;;;;;10.43;77.25;101821.47;5026077;28;20231;-75
2023/09/25 04:50:22;;;;;;;6.70;5.20;;;;;;;10.50;77.37;101814.63;5027955;28;20203;-75
2023/09/25 04:52:51;;;;;;;6.27;5.00;;;;;;;10.49;77.60;101819.13;5027316;28;20667;-75
2023/09/25 04:55:21;;;;;;;6.80;4.90;;;;;;;10.58;77.66;101812.94;5021059;28;20207;-75
2023/09/25 04:57:49;;;;;;;5.23;4.40;;;;;;;10.54;77.34;101822.25;5018425;28;20234;-75
2023/09/25 05:00:21;;;;;;;7.13;4.47;;;;;;;10.44;77.50;101815.16;5027669;28;20210;-76
2023/09/25 05:02:51;;;;;;;5.80;5.20;;;;;;;10.43;77.36;101822.34;5027130;28;20210;-75
2023/09/25 05:05:20;;;;;;;5.80;4.80;;;;;;;10.48;78.02;101817.41;5028156;28;20233;-75
2023/09/25 05:07:50;;;;;;;5.70;4.43;;;;;;;10.51;76.96;101814.47;5025527;28;20226;-75
2023/09/25 05:10:22;;;;;;;6.30;4.60;;;;;;;10.58;77.55;101812.94;5023152;28;20287;-75
2023/09/25 05:12:51;;;;;;;5.20;4.43;;;;;;;10.42;76.98;101817.94;5018580;28;20211;-75
2023/09/25 05:15:20;;;;;;;6.43;4.47;;;;;;;10.39;77.07;101820.03;5024529;28;20199;-75
2023/09/25 05:17:49;;;;;;;7.07;4.67;;;;;;;10.24;78.67;101822.22;5026279;28;20321;-75
2023/09/25 05:20:19;;;;;;;5.93;4.70;;;;;;;10.32;78.61;101833.13;5027613;28;20205;-75
2023/09/25 05:22:49;;;;;;;7.53;4.50;;;;;;;10.38;78.24;101832.56;5026769;28;20202;-75
2023/09/25 05:25:19;;;;;;;5.50;5.00;;;;;;;10.44;78.45;101829.41;5021232;28;20572;-75
2023/09/25 05:27:55;;;;;;;6.10;4.50;;;;;;;10.50;78.03;101833.34;5026472;28;20714;-75
2023/09/25 05:30:39;;;;;;;5.13;4.43;;;;;;;10.48;78.03;101829.97;5027074;28;20215;-74
2023/09/25 05:33:08;;;;;;;7.10;4.60;;;;;;;10.41;77.29;101834.97;5005462;28;20257;-75
2023/09/25 05:35:36;;;;;;;6.23;4.50;;;;;;;10.54;78.99;101834.78;5027572;28;20233;-75
2023/09/25 05:38:05;;;;;;;5.73;4.43;;;;;;;10.51;78.39;101837.75;5015633;28;20781;-75
2023/09/25 05:40:34;;;;;;;5.73;4.83;;;;;;;10.51;79.06;101835.88;5023894;28;20298;-75
2023/09/25 05:43:04;;;;;;;6.20;4.37;;;;;;;10.51;79.23;101835.88;5026421;28;20330;-75
2023/09/25 05:45:33;;;;;;;5.57;4.67;;;;;;;10.48;79.73;101835.34;5020660;28;20206;-75
2023/09/25 05:48:01;;;;;;;6.77;4.20;;;;;;;10.46;79.73;101838.13;5012550;28;20226;-75
2023/09/25 05:50:33;;;;;;;5.37;4.17;;;;;;;10.40;80.18;101844.03;5028358;28;20206;-75
2023/09/25 05:53:03;;;;;;;6.87;4.00;;;;;;;10.43;80.55;101857.13;5017759;28;20689;-75
2023/09/25 05:55:32;;;;;;;6.87;5.03;;;;;;;10.42;80.89;101852.75;5017712;28;20230;-76
2023/09/25 05:58:00;;;;;;;5.53;4.20;;;;;;;10.39;81.21;101850.34;5025997;28;20317;-75
2023/09/25 06:00:30;;;;;;;6.63;5.03;;;;;;;10.41;81.54;101858.25;5019086;28;20441;-75
2023/09/25 06:02:59;;;;;;;6.87;5.00;;;;;;;10.46;81.25;101856.00;5016888;28;20264;-75
2023/09/25 06:05:27;;;;;;;5.63;4.73;;;;;;;10.46;81.42;101856.00;5009589;28;20235;-75
2023/09/25 06:07:56;;;;;;;4.77;4.23;;;;;;;10.50;81.61;101852.09;5024849;28;20273;-75
2023/09/25 06:10:24;;;;;;;12.03;5.10;;;;;;;10.51;82.50;101859.97;5021622;28;20749;-76
2023/09/25 06:12:53;;;;;;;7.03;5.13;;;;;;;10.53;82.04;101859.88;5009029;28;20266;-75
2023/09/25 06:15:23;;;;;;;8.83;4.80;;;;;;;10.54;83.28;101873.13;5013465;28;20223;-75
2023/09/25 06:17:56;;;;;;;6.37;4.13;;;;;;;10.54;82.95;101862.41;5008366;28;20238;-75
2023/09/25 06:20:26;;;;;;;4.97;4.43;;;;;;;10.57;82.70;101877.38;5014921;28;20285;-75
2023/09/25 06:22:56;;;;;;;6.30;4.97;;;;;;;10.57;82.89;101867.50;5026262;28;20210;-75
2023/09/25 06:25:29;;;;;;;6.70;5.20;;;;;;;10.58;83.34;101865.69;5020135;28;20202;-75
2023/09/25 06:27:58;;;;;;;5.20;4.70;;;;;;;10.59;83.31;101868.22;5021355;28;20262;-75
2023/09/25 06:30:27;;;;;;;4.97;4.40;;;;;;;10.61;83.28;101871.63;5030718;28;20429;-75
2023/09/25 06:32:57;;;;;;;6.33;4.43;;;;;;;10.62;83.11;101864.41;5031865;28;20211;-75
2023/09/25 06:35:25;;;;;;;6.20;5.23;;;;;;;10.64;84.45;101867.81;5026087;28;20215;-75
2023/09/25 06:37:54;;;;;;;7.13;4.67;;;;;;;10.64;84.93;101870.50;5027375;28;20237;-75
2023/09/25 06:40:22;;;;;;;6.00;5.00;;;;;;;10.66;84.33;101866.69;5028590;28;20265;-75
2023/09/25 06:42:51;;;;;;;7.10;5.27;;;;;;;10.69;84.74;101869.09;5025953;28;20680;-75
2023/09/25 06:45:21;;;;;;;6.37;4.50;;;;;;;10.73;85.32;101868.84;5026886;28;20210;-75
2023/09/25 06:47:50;;;;;;;5.33;4.73;;;;;;;10.77;85.27;101864.91;5018581;28;20223;-75
2023/09/25 06:50:20;;;;;;;6.03;4.87;;;;;;;10.80;84.92;101867.31;5014479;28;20211;-75
2023/09/25 06:52:48;;;;;;;9.43;5.47;;;;;;;10.85;85.48;101873.13;5016151;28;20246;-75
2023/09/25 06:55:17;;;;;;;7.63;5.57;;;;;;;10.89;86.54;101871.88;5026871;28;20203;-75
2023/09/25 06:57:45;;;;;;;8.10;5.10;;;;;;;10.92;86.73;101872.47;5023697;28;20226;-75
2023/09/25 07:00:14;;;;;;;6.63;4.87;;;;;;;10.97;86.94;101872.03;5018949;28;20202;-75
2023/09/25 07:02:43;;;;;;;8.00;4.47;;;;;;;11.00;86.97;101858.38;5026549;28;20920;-75
2023/09/25 07:05:13;;;;;;;4.73;4.33;;;;;;;11.05;87.36;101870.41;5023269;28;20213;-75
2023/09/25 07:07:44;;;;;;;4.67;4.17;;;;;;;11.07;87.71;101865.72;5014554;28;20306;-75
2023/09/25 07:10:13;;;;;;;7.50;4.37;;;;;;;11.13;87.60;101864.31;5012661;28;20305;-76
2023/09/25 07:12:41;;;;;;;6.47;4.43;;;;;;;11.18;87.99;101865.63;5018701;28;20508;-74
2023/09/25 07:15:11;;;;;;;5.57;4.20;;;;;;;11.24;87.82;101876.78;5011702;28;20218;-75
2023/09/25 07:17:40;;;;;;;4.77;4.27;;;;;;;11.34;88.56;101877.66;5022412;28;20235;-75
2023/09/25 07:20:09;;;;;;;10.87;4.10;;;;;;;11.35;88.72;101874.84;5011585;28;20261;-75
2023/09/25 07:22:38;;;;;;;4.37;3.97;;;;;;;11.41;88.04;101874.28;5019183;28;20574;-75
2023/09/25 07:25:08;;;;;;;5.73;4.03;;;;;;;11.46;88.48;101872.06;5022230;28;20297;-75
2023/09/25 07:27:37;;;;;;;4.60;3.70;;;;;;;11.50;88.03;101867.25;5022072;28;20226;-75
2023/09/25 07:30:08;;;;;;;4.70;4.30;;;;;;;11.56;88.46;101874.75;5029762;28;20576;-75
2023/09/25 07:32:37;;;;;;;7.43;4.00;;;;;;;11.67;88.14;101878.16;5022821;28;20656;-75
2023/09/25 07:35:09;;;;;;;5.63;4.23;;;;;;;11.73;87.82;101874.09;5011057;28;20210;-76
2023/09/25 07:37:41;;;;;;;3.87;3.50;;;;;;;11.80;87.64;101877.91;5018329;28;20227;-75
2023/09/25 07:40:13;;;;;;;4.23;3.63;;;;;;;11.85;87.92;101875.63;5002877;28;20203;-76
2023/09/25 07:42:43;;;;;;;4.90;4.33;;;;;;;11.93;88.24;101864.19;5010505;28;20242;-76
2023/09/25 07:45:13;;;;;;;5.23;3.50;;;;;;;11.99;88.03;101871.69;5010893;28;20199;-76
2023/09/25 07:47:44;;;;;;;5.10;3.70;;;;;;;12.11;86.94;101865.19;5010096;28;20278;-75
2023/09/25 07:50:12;;;;;;;6.00;3.60;;;;;;;12.20;87.07;101867.00;5010383;28;20658;-76
2023/09/25 07:52:42;;;;;;;7.33;3.50;;;;;;;12.39;84.59;101872.34;5010222;28;20231;-76
2023/09/25 07:55:12;;;;;;;4.73;3.40;;;;;;;12.43;84.75;101873.72;5002392;28;20207;-76
2023/09/25 07:57:42;;;;;;;8.20;3.97;;;;;;;12.54;83.06;101870.88;5009614;28;20259;-76
2023/09/25 08:00:17;;;;;;;5.23;3.17;;;;;;;12.73;81.97;101866.47;5002806;28;20223;-76
2023/09/25 08:02:47;;;;;;;5.57;3.50;;;;;;;12.78;82.99;101872.22;5008810;28;20211;-76
2023/09/25 08:05:18;;;;;;;5.90;3.60;;;;;;;12.86;82.49;101872.34;5009979;28;20646;-77
2023/09/25 08:07:47;;;;;;;4.70;3.10;;;;;;;12.93;82.98;101870.75;5009346;28;20314;-76
2023/09/25 08:10:18;;;;;;;6.23;3.20;;;;;;;13.07;81.50;101867.59;5010038;28;20204;-76
2023/09/25 08:12:47;;;;;;;5.43;3.23;;;;;;;13.17;82.41;101869.25;5025618;28;20202;-76
2023/09/25 08:15:15;;;;;;;3.93;3.00;;;;;;;13.30;81.44;101868.91;5016601;28;20624;-76
2023/09/25 08:17:45;;;;;;;3.47;2.80;;;;;;;13.37;80.43;101867.31;5016616;28;20239;-76
2023/09/25 08:20:20;;;;;;;4.07;2.87;;;;;;;13.50;79.40;101875.84;5026136;28;20231;-76
2023/09/25 08:22:50;;;;;;;5.37;2.50;;;;;;;13.60;78.52;101879.31;5028076;28;20668;-76
2023/09/25 08:25:20;;;;;;;4.00;2.40;;;;;;;13.74;76.90;101883.31;5021204;28;20734;-76
2023/09/25 08:27:51;;;;;;;2.60;2.37;;;;;;;13.82;77.12;101874.50;5028036;28;20233;-76
2023/09/25 08:30:20;;;;;;;4.97;3.13;;;;;;;13.95;78.33;101880.31;5029003;28;20202;-76
2023/09/25 08:32:49;;;;;;;5.47;2.30;;;;;;;14.03;76.17;101883.09;5020314;28;20208;-76
2023/09/25 08:35:18;;;;;;;3.70;2.33;;;;;;;14.13;75.77;101878.47;5028789;28;20211;-76
2023/09/25 08:37:47;;;;;;;4.37;2.60;;;;;;;14.20;75.52;101884.94;5027569;28;20231;-76
2023/09/25 08:40:16;;;;;;;5.27;2.77;;;;;;;14.28;76.94;101882.28;5028519;28;20226;-76
2023/09/25 08:42:52;;;;;;;3.53;2.43;;;;;;;14.35;75.28;101883.38;5019647;28;20707;-76
2023/09/25 08:45:37;;;;;;;5.00;2.70;;;;;;;14.41;74.14;101872.00;5028809;28;20210;-76
2023/09/25 08:48:07;;;;;;;2.43;2.17;;;;;;;14.55;72.74;101876.81;5024989;28;20227;-77
2023/09/25 08:50:37;;;;;;;3.53;2.00;;;;;;;14.61;73.50;101870.78;5016483;28;20250;-77
2023/09/25 08:53:06;;;;;;;5.33;2.30;;;;;;;14.69;74.26;101875.38;5020081;28;20295;-77
2023/09/25 08:55:35;;;;;;;4.80;2.53;;;;;;;14.78;72.39;101873.56;5027004;28;20211;-77
2023/09/25 08:58:09;;;;;;;2.60;2.40;;;;;;;14.88;72.92;101868.91;5026978;28;20231;-76
2023/09/25 09:00:40;;;;;;;2.70;2.30;;;;;;;14.97;71.33;101867.94;5021473;28;20250;-76
2023/09/25 09:03:09;;;;;;;4.10;2.50;;;;;;;15.15;69.48;101868.69;5012311;28;20454;-76
2023/09/25 09:05:37;;;;;;;3.47;2.47;;;;;;;15.34;68.09;101868.44;5028521;28;20233;-77
2023/09/25 09:08:08;;;;;;;2.50;2.20;;;;;;;15.34;71.16;101865.75;5024583;28;20551;-76
2023/09/25 09:10:38;;;;;;;2.80;2.40;;;;;;;15.53;69.31;101867.31;5023968;28;20284;-76
2023/09/25 09:13:10;;;;;;;4.03;2.13;;;;;;;15.52;69.03;101862.94;5017027;28;20204;-76
2023/09/25 09:15:40;;;;;;;3.50;2.20;;;;;;;15.58;70.32;101859.59;5008882;28;20207;-77
2023/09/25 09:18:20;;;;;;;6.33;2.30;;;;;;;15.66;67.33;101860.44;5011952;28;20241;-76
2023/09/25 09:20:54;;;;;;;3.77;2.10;;;;;;;15.71;68.49;101858.09;5018865;28;20704;-76
2023/09/25 09:23:40;;;;;;;4.53;2.20;;;;;;;15.78;67.72;101873.63;5160057;22;20242;-73
2023/09/25 09:26:10;;;;;;;3.40;2.20;;;;;;;16.06;65.66;101867.72;5033810;28;20195;-73
2023/09/25 09:28:41;;;;;;;4.37;2.27;;;;;;;16.08;66.58;101864.88;5033433;28;20256;-71
2023/09/25 09:31:11;;;;;;;3.10;2.00;;;;;;;16.10;66.81;101855.56;5033710;28;20285;-72
2023/09/25 09:33:41;;;;;;;3.47;2.10;;;;;;;16.19;67.09;101856.44;5033582;28;20231;-71
2023/09/25 09:36:10;;;;;;;3.70;2.30;;;;;;;16.24;67.75;101854.03;5033934;28;20549;-72
2023/09/25 09:38:40;;;;;;;2.17;1.87;;;;;;;16.33;66.12;101855.75;5033304;28;20214;-72
2023/09/25 09:41:09;;;;;;;3.90;2.27;;;;;;;16.46;64.51;101853.34;5033577;28;20206;-72
2023/09/25 09:43:41;;;;;;;2.60;2.03;;;;;;;16.55;64.25;101857.75;5033181;28;20223;-72
2023/09/25 09:46:12;;;;;;;2.83;2.00;;;;;;;16.68;63.39;101849.94;5033265;28;20283;-72
2023/09/25 09:48:45;;;;;;;2.83;1.70;;;;;;;16.78;62.74;101846.22;5033539;28;20191;-72
2023/09/25 09:51:17;;;;;;;3.20;2.03;;;;;;;16.87;63.45;101847.88;5033524;28;20187;-72
2023/09/25 09:53:46;;;;;;;2.93;1.90;;;;;;;16.91;65.78;101847.34;5033375;28;20222;-72
2023/09/25 09:56:16;;;;;;;6.13;2.30;;;;;;;17.00;64.73;101842.75;5033380;28;20207;-72
2023/09/25 09:58:47;;;;;;;3.70;2.20;;;;;;;17.07;64.85;101835.59;5033463;28;20217;-72
2023/09/25 10:01:17;;;;;;;4.23;1.97;;;;;;;17.18;63.74;101829.81;5033338;28;20214;-72
2023/09/25 10:03:46;;;;;;;2.70;1.73;;;;;;;17.26;63.22;101829.75;5033224;28;20226;-72
2023/09/25 10:06:15;;;;;;;2.53;2.07;;;;;;;17.33;61.58;101830.72;5033321;28;20215;-72
2023/09/25 10:08:59;;;;;;;3.60;1.83;;;;;;;17.40;61.97;101837.13;5032969;28;20748;-71
2023/09/25 10:11:28;;;;;;;5.77;2.93;;;;;;;17.46;62.26;101825.59;5033371;28;20274;-72
2023/09/25 10:14:03;;;;;;;2.50;1.90;;;;;;;17.56;60.78;101833.50;5033226;28;20231;-72
2023/09/25 10:16:53;;;;;;;2.90;2.20;;;;;;;17.64;60.77;101831.56;5033694;28;20207;-72
2023/09/25 10:19:47;;;;;;;5.87;2.70;;;;;;;17.69;60.84;101831.91;5033195;28;20218;-72
2023/09/25 10:22:21;;;;;;;4.30;2.00;;;;;;;17.71;60.86;101832.53;5033207;28;20583;-72
2023/09/25 10:24:59;;;;;;;3.77;2.10;;;;;;;17.80;60.83;101827.06;5032745;28;20265;-73
2023/09/25 10:27:31;;;;;;;9.53;2.33;;;;;;;17.88;60.01;101832.41;5033156;28;20226;-73
2023/09/25 10:30:07;;;;;;;2.87;2.10;;;;;;;17.99;58.93;101815.72;5033146;28;20187;-75
2023/09/25 10:32:40;;;;;;;2.90;2.27;;;;;;;18.06;59.77;101822.97;5033191;28;20195;-72
2023/09/25 10:35:37;;;;;;;4.13;1.83;;;;;;;18.29;54.50;101827.50;5036269;28;20195;-73
2023/09/25 10:38:14;;;;;;;3.73;2.03;;;;;;;18.31;55.65;101812.72;5036889;28;20265;-73
2023/09/25 10:41:01;;;;;;;1.73;1.60;;;;;;;18.45;55.46;101819.19;5036800;28;20215;-73
2023/09/25 10:43:30;;;;;;;4.70;2.20;;;;;;;18.44;55.71;101815.63;5036783;28;20269;-73
2023/09/25 10:46:01;;;;;;;4.20;2.20;;;;;;;18.57;55.93;101815.03;5036716;28;20207;-70
2023/09/25 10:48:31;;;;;;;2.00;1.80;;;;;;;18.62;55.21;101813.44;5036448;28;20656;-74
2023/09/25 10:51:00;;;;;;;2.60;2.00;;;;;;;18.72;54.24;101814.00;5036675;28;20199;-74
2023/09/25 10:53:28;;;;;;;4.27;1.87;;;;;;;18.81;54.10;101816.59;5036392;28;20781;-75
2023/09/25 10:55:57;;;;;;;2.40;1.97;;;;;;;18.90;51.01;101810.06;5036540;28;20211;-75
2023/09/25 10:58:27;;;;;;;2.20;1.70;;;;;;;19.01;52.25;101812.28;5036151;28;20584;-75
2023/09/25 11:00:57;;;;;;;1.93;1.57;;;;;;;19.07;49.97;101816.97;5036412;28;20281;-75
2023/09/25 11:03:27;;;;;;;3.30;2.00;;;;;;;19.08;53.22;101805.06;5036360;28;20336;-75
2023/09/25 11:05:56;;;;;;;2.53;1.87;;;;;;;19.06;53.39;101799.00;5036689;28;20211;-74
2023/09/25 11:08:27;;;;;;;3.37;2.00;;;;;;;19.11;53.72;101793.84;5036324;28;20207;-75
2023/09/25 11:10:57;;;;;;;3.97;1.90;;;;;;;19.18;51.65;101792.03;5036325;28;20264;-75
2023/09/25 11:13:31;;;;;;;1.93;1.70;;;;;;;19.33;50.25;101790.13;5035874;28;20311;-75
2023/09/25 11:16:00;;;;;;;2.10;1.63;;;;;;;19.41;50.88;101791.91;5036207;28;20194;-75
2023/09/25 11:18:30;;;;;;;3.10;1.90;;;;;;;19.51;49.76;101796.00;5036105;28;20202;-75
2023/09/25 11:21:00;;;;;;;2.70;1.73;;;;;;;19.62;50.71;101786.50;5036066;28;20322;-75
2023/09/25 11:23:28;;;;;;;4.47;1.80;;;;;;;19.66;50.42;101783.19;5035705;28;20296;-74
2023/09/25 11:25:57;;;;;;;3.17;2.20;;;;;;;19.73;48.89;101786.81;5035714;28;20625;-74
2023/09/25 11:28:27;;;;;;;3.20;1.90;;;;;;;19.80;51.36;101777.88;5036786;28;20213;-74
2023/09/25 11:30:56;;;;;;;3.47;1.97;;;;;;;19.88;49.66;101777.75;5035859;28;20245;-74
2023/09/25 11:33:28;;;;;;;3.27;1.83;;;;;;;19.94;47.52;101782.38;5035821;28;20229;-75
2023/09/25 11:35:59;;;;;;;4.53;2.17;;;;;;;20.01;48.66;101784.13;5035558;28;20688;-75
2023/09/25 11:38:30;;;;;;;3.37;2.00;;;;;;;20.03;45.21;101783.94;5035843;28;20223;-75